Terminal Aerodrome Forecast
Issued by NWS

Home | Current Version | Previous Version | Text Only | Print | Product List | Glossary On
Versions: 1 2 3 4 5 6 7 8 9 10 11 12 13
723
FTUS43 KDTX 252328
TAFMBS
TAF
KMBS 252328Z 2600/2624 14007KT P6SM BKN250
     FM261000 12005KT 6SM BR SCT015 BKN070
     FM261400 14013KT P6SM SCT070 BKN200
     FM261700 18015G25KT P6SM BKN050 OVC200=

USA.gov is the U.S. government's official web portal to all federal, state and local government web resources and services.